Jacinto Machado, Brazil
Current Conditions -  °F | °C
As of 6:00 PM on Tuesday 25 Nov 2014 (Local Time) from SBCM Reporting Station
Broken Clouds Broken Clouds  
Wind Chill: 81°   Ceiling: 10000
Heat Index: 83°   Visibility: 6mi
Dew Point: 66°   Wind: 6mph
Humidity: 61%   Direction: 120°ESE
Pressure: 29.77"   Gusts: NA
Location:  29°S, 49.76°W
Report Text: SBCM 252000Z 12005KT 9999 FEW040 BKN100 27/19 Q1008
Loading
Personal Weather Stations






























Interactive Weather Map New forecast layout! Learn more

10-Day Weather Forecast

Advertisements
Track Severe Weather on mobile